Latest Weather Observations for Moss Vale

IDN60801

Issued at 12:34 pm EDT Monday 2 February 2015 (issued every 30 minutes, with the page automatically refreshed every 10 minutes)

About weather observations | Map of weather stations | Latest weather observations for NSW | Other Formats
Station Details ID: 068239 Name: MOSS VALE AWS Lat: -34.53 Lon: 150.42 Height: 678.4 m
Data from the previous 72 hours. | See also: Recent months at Moss Vale
Date/Time
EDT
Temp
°C
App
Temp
°C
Dew
Point
Rel
Hum
%
Delta-T
°C
Wind Press
QNH
hPa
Press
MSL
hPa
Rain
since 9 am
mm
Dir
 
Spd
km/h
Gust
km/h
Spd
kts
Gust
kts
02/12:30pm 16.9 13.5 12.4 75 2.6 S 22 32 12 17 1018.5 1015.6 0.0
02/12:00pm 17.4 14.4 12.7 74 2.7 S 20 33 11 18 1018.4 1015.5 0.0
02/11:30am 17.0 13.4 11.9 72 2.9 SE 22 30 12 16 1018.5 1015.6 0.0
02/11:00am 16.2 13.0 12.0 76 2.4 SSE 20 28 11 15 1018.5 1015.6 0.0
02/10:30am 15.8 12.8 12.0 78 2.1 S 19 26 10 14 1018.3 1015.3 0.0
02/10:00am 14.7 11.2 10.9 78 2.1 S 20 26 11 14 1018.3 1015.3 0.0
02/09:30am 15.6 13.6 12.7 83 1.7 S 15 24 8 13 1017.9 1014.9 0.0
02/09:26am 14.8 11.6 11.4 80 1.9 SSE 19 26 10 14 1017.9 1014.9 0.0
02/09:00am 14.0 10.9 11.5 85 1.4 SSE 19 28 10 15 1017.6 1014.7 12.4
02/08:55am 13.8 10.9 11.1 84 1.5 SSE 17 28 9 15 1017.6 1014.7 12.4
02/08:47am 14.2 11.9 11.9 86 1.3 SSE 15 20 8 11 1017.5 1014.6 12.4
02/08:30am 13.2 9.7 10.9 86 1.3 S 20 28 11 15 1017.3 1014.4 12.4
02/08:25am 13.2 9.8 10.7 85 1.4 S 19 28 10 15 1017.2 1014.3 12.4
02/08:00am 12.7 9.8 10.9 89 1.0 SSE 17 24 9 13 1017.0 1014.0 12.4
02/07:48am 12.1 9.4 10.5 90 0.9 S 15 22 8 12 1016.7 1013.7 12.4
02/07:32am 11.9 10.1 10.8 93 0.6 SSE 11 15 6 8 1016.5 1013.5 12.4
02/07:30am 11.9 10.1 11.0 94 0.5 SSE 11 13 6 7 1016.5 1013.5 12.4
02/07:17am 11.5 9.6 10.4 93 0.6 S 11 15 6 8 1016.0 1013.1 12.4
02/07:00am 11.3 9.8 10.4 94 0.5 SSE 9 13 5 7 1015.9 1013.0 12.4
02/06:30am 11.2 8.9 10.3 94 0.5 S 13 17 7 9 1015.4 1012.4 12.4
02/06:18am 11.2 8.9 10.3 94 0.5 S 13 19 7 10 1015.3 1012.3 12.4
02/06:00am 10.9 8.4 9.8 93 0.6 SSE 13 19 7 10 1015.0 1012.0 12.4
02/05:30am 11.2 9.6 10.1 93 0.6 SSE 9 15 5 8 1014.4 1011.5 12.4
02/05:00am 11.3 9.3 10.2 93 0.6 S 11 17 6 9 1014.4 1011.5 12.4
02/04:30am 11.4 8.2 10.1 92 0.7 SSE 17 24 9 13 1014.3 1011.3 12.4
02/04:00am 11.8 8.2 10.4 91 0.7 SSE 20 28 11 15 1013.9 1010.9 12.4
02/03:30am 11.9 8.4 11.0 94 0.5 SSE 20 28 11 15 1014.0 1011.0 12.4
02/03:00am 11.9 8.6 10.8 93 0.6 S 19 24 10 13 1014.4 1011.5 12.4
02/02:45am 12.2 9.0 11.3 94 0.5 S 19 28 10 15 1014.5 1011.6 12.4
02/02:42am 12.3 8.9 11.4 94 0.5 S 20 28 11 15 1014.6 1011.7 12.4
02/02:30am 12.5 9.2 11.7 95 0.4 S 20 26 11 14 1014.8 1011.8 12.4
02/02:26am 12.5 9.4 11.7 95 0.4 S 19 26 10 14 1014.8 1011.8 12.4
02/02:21am 12.6 9.6 11.8 95 0.4 S 19 24 10 13 1014.8 1011.8 12.4
02/02:08am 12.5 9.2 11.7 95 0.4 S 20 30 11 16 1014.8 1011.8 12.4
02/02:00am 12.5 8.4 11.6 94 0.5 S 24 30 13 16 1014.8 1011.8 12.4
02/01:43am 12.4 9.3 11.5 94 0.5 SSE 19 24 10 13 1015.0 1012.0 12.4
02/01:31am 13.0 11.6 12.2 95 0.4 SSE 11 15 6 8 1014.9 1011.9 12.4
02/01:30am 13.0 11.6 12.2 95 0.4 SSE 11 15 6 8 1015.0 1012.0 12.4
02/01:24am 13.0 11.2 12.2 95 0.4 S 13 19 7 10 1015.0 1012.0 12.4
02/01:00am 13.2 10.1 12.3 94 0.5 S 20 30 11 16 1015.2 1012.2 12.2
02/12:36am 13.5 11.8 12.6 94 0.5 S 13 19 7 10 1015.4 1012.4 12.0
02/12:30am 13.6 11.9 12.5 93 0.6 S 13 19 7 10 1015.4 1012.4 12.0
02/12:23am 13.5 12.5 12.4 93 0.6 S 9 15 5 8 1015.4 1012.4 12.0
02/12:00am 13.8 12.2 12.9 94 0.5 SE 13 19 7 10 1015.2 1012.2 11.8
 
Date/Time
EDT
Temp
°C
App
Temp
°C
Dew
Point
Rel
Hum
%
Delta-T
°C
Wind Press
QNH
hPa
Press
MSL
hPa
Rain
since 9 am
mm
Dir
 
Spd
km/h
Gust
km/h
Spd
kts
Gust
kts
01/11:58pm 13.7 12.1 12.8 94 0.5 SE 13 20 7 11 1015.2 1012.2 11.8
01/11:30pm 13.9 12.0 13.0 94 0.5 SE 15 24 8 13 1014.9 1011.9 11.8
01/11:00pm 13.8 11.4 12.7 93 0.6 SE 17 24 9 13 1014.4 1011.5 11.8
01/10:30pm 13.9 12.8 13.0 94 0.5 SE 11 15 6 8 1015.0 1012.0 11.8
01/10:24pm 13.8 12.6 12.9 94 0.5 SE 11 15 6 8 1014.9 1011.9 11.8
01/10:00pm 13.6 10.8 12.7 94 0.5 SE 19 24 10 13 1014.5 1011.6 11.8
01/09:49pm 13.7 11.3 12.8 94 0.5 ESE 17 24 9 13 1014.3 1011.3 11.8
01/09:30pm 13.7 12.0 12.4 92 0.7 E 13 22 7 12 1014.0 1011.0 11.4
01/09:16pm 14.0 12.3 12.4 90 0.9 SSE 13 20 7 11 1014.5 1011.6 10.6
01/09:00pm 14.2 12.0 12.2 88 1.1 S 15 19 8 10 1014.5 1011.6 9.6
01/08:42pm 14.4 11.9 12.4 88 1.1 SSE 17 24 9 13 1014.1 1011.1 9.6
01/08:30pm 14.5 11.7 12.7 89 1.0 SSE 19 26 10 14 1014.0 1011.0 9.6
01/08:00pm 14.8 12.4 12.5 86 1.3 SE 17 24 9 13 1013.8 1010.8 9.6
01/07:55pm 14.8 12.0 12.5 86 1.3 SE 19 28 10 15 1013.7 1010.7 9.6
01/07:30pm 15.2 13.1 12.3 83 1.6 SE 15 20 8 11 1013.3 1010.3 9.6
01/07:00pm 15.6 13.1 12.2 80 1.9 ESE 17 24 9 13 1012.6 1009.6 9.6
01/05:30pm 17.2 13.9 13.9 81 1.9 SE 24 32 13 17 1011.2 1008.2 9.6
01/05:00pm 16.3 14.9 14.5 89 1.1 ENE 15 19 8 10 1011.6 1008.5 9.6
01/04:37pm 14.8 12.7 13.5 92 0.7 ESE 17 24 9 13 1011.7 1008.6 9.6
01/04:30pm 14.7 12.1 13.2 91 0.9 SE 19 28 10 15 1011.6 1008.5 9.6
01/04:00pm 15.3 12.9 13.8 91 0.9 SE 19 28 10 15 1011.6 1008.5 9.0
01/03:40pm 16.1 13.4 13.4 84 1.6 ESE 20 32 11 17 1011.6 1008.5 1.0
01/03:30pm 16.9 14.1 13.2 79 2.1 ESE 20 32 11 17 1011.2 1008.2 0.0
01/03:00pm 18.1 15.4 13.6 75 2.6 ESE 20 28 11 15 1011.2 1008.2 0.0
01/02:30pm 18.0 15.2 14.3 79 2.2 ESE 22 30 12 16 1011.0 1008.0 0.0
01/02:00pm 18.8 16.2 13.9 73 2.9 SE 20 28 11 15 1011.2 1008.2 0.0
01/01:30pm 18.9 16.4 13.5 71 3.2 SE 19 24 10 13 1011.2 1008.2 0.0
01/01:00pm 19.3 18.3 13.5 69 3.4 E 11 15 6 8 1011.6 1008.5 0.0
01/12:30pm 19.0 17.5 12.0 64 4.0 ENE 11 17 6 9 1011.7 1008.6 0.0
01/12:00pm 20.6 20.6 14.3 67 3.8 N 7 11 4 6 1011.8 1008.7 0.0
01/11:30am 19.5 18.4 13.2 67 3.7 ENE 11 15 6 8 1011.9 1008.9 0.0
01/11:00am 19.0 18.4 12.3 65 3.9 E 7 13 4 7 1012.0 1009.0 0.0
01/10:30am 18.6 17.6 12.4 67 3.6 NE 9 15 5 8 1012.0 1008.8 0.0
01/10:09am 17.4 16.9 12.7 74 2.7 NNE 7 9 4 5 1012.0 1008.8 0.0
01/10:00am 17.4 17.0 12.9 75 2.6 NNE 7 11 4 6 1011.9 1008.7 0.0
01/09:32am 17.2 17.0 13.5 79 2.2 WNW 7 13 4 7 1011.9 1008.7 0.0
01/09:30am 17.2 17.2 14.1 82 1.8 NW 7 13 4 7 1011.9 1008.7 0.0
01/09:24am 16.5 16.7 13.0 80 2.0 WNW 4 11 2 6 1011.8 1008.6 0.0
01/09:00am 15.8 16.3 12.7 82 1.8 SE 2 7 1 4 1011.7 1008.5 0.0
01/08:30am 14.4 14.3 13.4 94 0.6 NE 6 9 3 5 1011.6 1008.4 0.0
01/08:00am 13.5 13.7 12.9 96 0.3 SE 4 7 2 4 1011.3 1008.2 0.0
01/07:59am 13.5 13.7 12.9 96 0.3 SE 4 7 2 4 1011.3 1008.2 0.0
01/07:30am 11.7 12.1 11.2 97 0.3 CALM 0 0 0 0 1011.1 1007.9 0.0
01/07:00am 10.5 10.6 10.0 97 0.3 CALM 0 0 0 0 1010.9 1007.7 0.0
01/06:55am 10.3 10.3 9.8 97 0.3 CALM 0 0 0 0 1010.8 1007.6 0.0
01/06:52am 10.3 10.3 9.8 97 0.3 CALM 0 2 0 1 1010.8 1007.6 0.0
01/06:30am 10.0 9.9 9.4 96 0.3 CALM 0 0 0 0 1010.8 1007.6 0.0
01/06:26am 10.1 10.0 9.5 96 0.3 CALM 0 0 0 0 1010.7 1007.5 0.0
01/06:25am 10.2 10.1 9.6 96 0.3 CALM 0 0 0 0 1010.7 1007.5 0.0
01/06:24am 10.2 10.1 9.6 96 0.3 CALM 0 0 0 0 1010.7 1007.5 0.0
01/06:06am 10.2 10.1 9.6 96 0.3 CALM 0 0 0 0 1010.4 1007.2 0.0
01/06:00am 10.0 9.9 9.4 96 0.3 CALM 0 0 0 0 1010.4 1007.2 0.0
01/05:48am 10.2 10.1 9.6 96 0.3 CALM 0 0 0 0 1010.3 1007.1 0.0
01/05:30am 10.1 10.0 9.5 96 0.3 CALM 0 0 0 0 1010.3 1007.1 0.0
01/05:00am 10.3 10.2 9.5 95 0.4 CALM 0 0 0 0 1010.1 1006.9 0.0
01/04:30am 10.7 10.7 9.9 95 0.4 CALM 0 0 0 0 1010.0 1006.7 0.0
01/04:12am 10.8 10.8 9.9 94 0.5 CALM 0 0 0 0 1010.1 1006.9 0.0
01/04:00am 11.2 11.4 10.4 95 0.4 CALM 0 2 0 1 1010.1 1006.9 0.0
01/03:30am 11.4 11.5 10.3 93 0.6 CALM 0 7 0 4 1010.0 1006.7 0.0
01/03:00am 11.9 10.8 10.5 91 0.8 ESE 7 7 4 4 1010.1 1006.9 0.0
01/02:30am 12.1 11.9 10.5 90 0.9 ESE 2 7 1 4 1010.4 1007.2 0.0
01/02:00am 12.9 13.2 11.0 88 1.0 CALM 0 0 0 0 1010.8 1007.6 0.0
01/01:30am 13.2 13.4 10.7 85 1.4 CALM 0 0 0 0 1010.8 1007.6 0.0
01/01:00am 13.4 12.4 10.9 85 1.4 SSE 7 9 4 5 1011.1 1007.9 0.0
01/12:30am 13.8 12.8 11.1 84 1.5 ESE 7 9 4 5 1011.2 1008.0 0.0
01/12:00am 14.0 13.2 11.0 82 1.6 ESE 6 7 3 4 1011.4 1008.3 0.0
 
Date/Time
EDT
Temp
°C
App
Temp
°C
Dew
Point
Rel
Hum
%
Delta-T
°C
Wind Press
QNH
hPa
Press
MSL
hPa
Rain
since 9 am
mm
Dir
 
Spd
km/h
Gust
km/h
Spd
kts
Gust
kts
31/11:30pm 13.9 13.2 11.4 85 1.4 SE 6 7 3 4 1011.4 1008.3 0.0
31/11:00pm 14.2 14.0 11.9 86 1.3 NNE 4 7 2 4 1011.4 1008.3 0.0
31/10:30pm 14.2 14.6 11.2 82 1.6 CALM 0 0 0 0 1011.4 1008.3 0.0
31/10:00pm 14.4 13.1 11.4 82 1.7 NE 9 13 5 7 1011.2 1008.0 0.0
31/09:30pm 14.5 14.5 11.3 81 1.8 NNE 2 7 1 4 1011.0 1007.8 0.0
31/09:00pm 14.5 13.2 11.1 80 1.9 NE 9 11 5 6 1010.6 1007.4 0.0
31/08:30pm 14.6 12.5 11.2 80 1.9 ENE 13 17 7 9 1010.1 1006.9 0.0
31/08:00pm 14.9 12.8 11.1 78 2.1 ENE 13 15 7 8 1009.7 1006.5 0.0
31/07:30pm 15.6 13.6 11.6 77 2.2 ENE 13 19 7 10 1009.5 1006.3 0.0
31/07:00pm 16.4 14.3 11.3 72 2.9 ENE 13 17 7 9 1009.1 1005.9 0.0
31/06:30pm 17.1 14.7 11.4 69 3.2 NE 15 19 8 10 1008.7 1005.5 0.0
31/06:00pm 17.9 15.3 11.9 68 3.4 ENE 17 20 9 11 1008.0 1004.8 0.0
31/05:30pm 17.9 16.0 11.9 68 3.4 ENE 13 17 7 9 1008.1 1004.9 0.0
31/05:00pm 17.5 15.1 11.3 67 3.5 ENE 15 19 8 10 1008.2 1005.0 0.0
31/04:30pm 17.6 14.9 11.8 69 3.3 E 17 26 9 14 1008.5 1005.2 0.0
31/04:00pm 18.1 15.3 11.2 64 3.9 ENE 17 24 9 13 1008.0 1004.8 0.0
31/03:30pm 20.5 17.8 9.1 48 6.2 WSW 13 17 7 9 1007.9 1004.7 0.0
31/03:00pm 20.2 18.6 8.8 48 6.2 SW 7 17 4 9 1007.8 1004.6 0.0
31/02:30pm 20.0 17.7 9.0 49 6.0 SW 11 17 6 9 1007.8 1004.6 0.0
31/02:00pm 21.2 18.8 10.1 49 6.2 WNW 13 22 7 12 1007.8 1004.6 0.0
31/01:30pm 20.5 18.1 10.0 51 5.8 WNW 13 20 7 11 1008.0 1004.8 0.0
31/01:00pm 21.0 18.7 11.9 56 5.3 W 15 28 8 15 1008.5 1005.2 0.0
31/12:30pm 20.0 17.1 9.6 51 5.7 W 15 20 8 11 1008.7 1005.5 0.0
31/12:00pm 19.6 18.3 11.4 59 4.7 W 9 17 5 9 1009.0 1005.8 0.0
31/11:30am 18.7 15.6 8.7 52 5.4 NNW 15 22 8 12 1009.2 1006.0 0.0
31/11:00am 17.4 15.2 8.0 54 5.0 NNW 9 17 5 9 1009.5 1006.3 0.0
31/10:30am 17.8 16.2 8.1 53 5.1 NE 6 11 3 6 1009.7 1006.5 0.0
31/10:00am 17.3 16.3 9.0 58 4.5 WNW 4 9 2 5 1009.7 1006.5 0.0
31/09:30am 16.4 15.5 9.1 62 3.9 SSW 4 11 2 6 1009.6 1006.4 0.0
31/09:00am 15.6 14.1 10.6 72 2.7 W 9 11 5 6 1009.5 1006.3 0.0
31/08:30am 13.8 12.3 9.0 73 2.5 W 7 11 4 6 1009.4 1006.2 0.0
31/08:00am 12.2 10.7 9.0 81 1.7 WSW 7 11 4 6 1009.4 1006.2 0.0
31/07:30am 9.7 9.2 8.0 89 0.9 CALM 0 0 0 0 1009.3 1006.1 0.0
31/07:00am 8.8 8.3 7.9 94 0.4 CALM 0 0 0 0 1009.0 1005.8 0.0
31/06:30am 7.9 6.8 6.8 93 0.5 W 2 7 1 4 1008.8 1005.6 0.0
31/06:00am 8.3 6.4 6.9 91 0.7 W 6 7 3 4 1008.7 1005.5 0.0
31/05:30am 8.7 6.7 7.2 90 0.7 W 7 9 4 5 1008.3 1005.1 0.0
31/05:00am 9.0 7.1 7.5 90 0.7 W 7 9 4 5 1008.2 1005.0 0.0
31/04:30am 8.7 6.4 7.3 91 0.7 W 9 9 5 5 1008.2 1005.0 0.0
31/04:00am 9.0 6.6 7.1 88 0.9 W 9 11 5 6 1008.2 1005.0 0.0
31/03:30am 9.3 7.0 7.6 89 0.8 W 9 11 5 6 1008.3 1005.1 0.0
31/03:00am 9.9 7.6 7.5 85 1.2 W 9 11 5 6 1008.6 1005.3 0.0
31/02:30am 10.5 8.6 7.6 82 1.4 W 7 9 4 5 1008.7 1005.5 0.0
31/02:00am 10.9 8.6 7.6 80 1.7 W 9 11 5 6 1008.8 1005.6 0.0
31/01:30am 11.4 9.2 7.7 78 1.9 W 9 9 5 5 1009.0 1005.8 0.0
31/01:00am 11.9 10.1 8.0 77 2.0 WSW 7 9 4 5 1009.2 1006.0 0.0
31/12:30am 12.0 9.5 8.1 77 2.0 SW 11 13 6 7 1009.4 1006.2 0.0
31/12:00am 12.5 10.4 8.2 75 2.2 WSW 9 11 5 6 1009.6 1006.4 0.0
 
Date/Time
EDT
Temp
°C
App
Temp
°C
Dew
Point
Rel
Hum
%
Delta-T
°C
Wind Press
QNH
hPa
Press
MSL
hPa
Rain
since 9 am
mm
Dir
 
Spd
km/h
Gust
km/h
Spd
kts
Gust
kts
30/11:30pm 12.8 10.6 7.9 72 2.5 SSW 9 13 5 7 1009.7 1006.5 0.0
30/11:00pm 13.2 10.6 7.9 70 2.7 SSW 11 13 6 7 1009.8 1006.6 0.0
30/10:30pm 13.9 11.4 8.3 69 2.9 SSW 11 15 6 8 1010.0 1006.7 0.0
30/10:00pm 14.6 11.9 9.0 69 3.0 SSW 13 17 7 9 1009.7 1006.5 0.0
30/09:30pm 14.9 12.2 9.1 68 3.1 SSW 13 17 7 9 1009.7 1006.5 0.0
30/09:00pm 15.3 12.6 8.8 65 3.4 SSW 13 19 7 10 1009.4 1006.2 0.0
30/08:30pm 15.9 13.5 8.6 62 3.9 SW 11 17 6 9 1009.1 1005.9 0.0
30/08:00pm 16.4 12.2 8.4 59 4.2 SSW 20 26 11 14 1008.8 1005.6 0.0
30/07:30pm 17.1 12.9 8.3 56 4.7 S 20 28 11 15 1008.5 1005.2 0.0
30/07:00pm 17.6 13.7 8.5 55 4.9 SSW 19 22 10 12 1008.1 1004.9 0.0
30/06:30pm 17.5 13.5 8.4 55 4.8 SW 19 26 10 14 1008.0 1004.8 0.0
30/06:00pm 17.5 13.0 8.4 55 4.8 SSW 22 30 12 16 1007.9 1004.7 0.0
30/05:30pm 17.9 13.0 7.0 49 5.6 SW 22 32 12 17 1007.9 1004.7 0.0
30/05:00pm 17.7 11.6 6.6 48 5.7 WSW 28 41 15 22 1007.7 1004.5 0.0
30/04:30pm 18.9 12.4 6.4 44 6.4 SW 30 41 16 22 1007.9 1004.7 0.0
30/04:00pm 19.9 13.8 8.3 47 6.3 SW 30 41 16 22 1007.9 1004.7 0.0
30/03:30pm 19.2 12.8 7.0 45 6.4 WSW 30 43 16 23 1007.9 1004.7 0.0
30/03:00pm 18.5 11.4 5.7 43 6.5 SW 32 44 17 24 1007.7 1004.5 0.0
30/02:30pm 18.5 12.6 7.3 48 5.9 SW 28 37 15 20 1008.0 1004.8 0.0
30/02:00pm 18.5 12.9 8.7 53 5.3 WSW 28 44 15 24 1008.5 1005.2 0.0
30/01:30pm 17.0 11.2 7.9 55 4.8 WSW 28 37 15 20 1008.7 1005.5 0.0
30/01:00pm 17.3 11.4 7.4 52 5.2 SW 28 39 15 21 1009.1 1005.9 0.0

Other Formats:

Comma delimited format used in spreadsheet applications
http://www.bom.gov.au/fwo/IDN60801/IDN60801.94746.axf

JavaScript Object Notation format (JSON) in row-major order
http://www.bom.gov.au/fwo/IDN60801/IDN60801.94746.json